createdAt,value
2023-04-23T00:00:04.940Z,56.40
2023-04-23T00:00:37.433Z,59.30
2023-04-23T00:01:09.936Z,57.30
2023-04-23T00:01:42.468Z,51.40
2023-04-23T00:02:15.032Z,61.30
2023-04-23T00:02:47.553Z,59.90
2023-04-23T00:03:20.157Z,57.20
2023-04-23T00:03:52.765Z,58.40
2023-04-23T00:04:25.213Z,55.50
2023-04-23T00:04:57.862Z,53.00
2023-04-23T00:05:30.316Z,52.40
2023-04-23T00:06:02.637Z,53.90
2023-04-23T00:06:35.196Z,53.10
2023-04-23T00:07:07.673Z,48.10
2023-04-23T00:07:40.161Z,53.70
2023-04-23T00:08:12.633Z,61.70
2023-04-23T00:08:45.163Z,60.50
2023-04-23T00:09:17.671Z,54.10
2023-04-23T00:09:50.198Z,55.60
2023-04-23T00:10:22.752Z,54.10
2023-04-23T00:10:55.214Z,55.80
2023-04-23T00:11:27.764Z,52.00
2023-04-23T00:12:00.277Z,54.60
2023-04-23T00:12:32.776Z,51.50
2023-04-23T00:13:05.273Z,50.60
2023-04-23T00:13:37.794Z,56.50
2023-04-23T00:14:10.310Z,51.90
2023-04-23T00:14:43.059Z,61.70
2023-04-23T00:15:15.393Z,61.30
2023-04-23T00:15:47.876Z,46.10
2023-04-23T00:16:20.435Z,44.80
2023-04-23T00:16:52.867Z,45.00
2023-04-23T00:17:25.358Z,47.10
2023-04-23T00:17:57.882Z,51.30
2023-04-23T00:18:30.364Z,52.00
2023-04-23T00:19:02.859Z,46.70
2023-04-23T00:19:35.372Z,54.00
2023-04-23T00:20:07.874Z,55.50
2023-04-23T00:20:40.412Z,49.00
2023-04-23T00:21:12.896Z,47.90
2023-04-23T00:21:45.412Z,47.30
2023-04-23T00:22:17.916Z,49.20
2023-04-23T00:22:50.416Z,49.90
2023-04-23T00:23:22.921Z,48.30
2023-04-23T00:23:55.401Z,48.00
2023-04-23T00:24:27.886Z,45.70
2023-04-23T00:25:00.370Z,52.20
2023-04-23T00:25:32.880Z,49.80
2023-04-23T00:26:05.367Z,49.20
2023-04-23T00:26:37.909Z,56.80
2023-04-23T00:27:10.430Z,52.10
2023-04-23T00:27:42.987Z,47.10
2023-04-23T00:28:15.482Z,49.40
2023-04-23T00:28:47.961Z,51.00
2023-04-23T00:29:20.455Z,48.90
2023-04-23T00:29:52.939Z,47.80
2023-04-23T00:30:25.422Z,45.20
2023-04-23T00:30:57.929Z,43.30
2023-04-23T00:31:30.422Z,45.30
2023-04-23T00:32:02.974Z,53.50
2023-04-23T00:32:35.464Z,53.70
2023-04-23T00:33:07.955Z,50.10
2023-04-23T00:33:40.494Z,49.10
2023-04-23T00:34:12.985Z,48.80
2023-04-23T00:34:45.518Z,50.40
2023-04-23T00:35:18.000Z,51.60
2023-04-23T00:35:50.517Z,49.30
2023-04-23T00:36:23.020Z,55.10
2023-04-23T00:36:55.538Z,51.30
2023-04-23T00:37:28.057Z,47.10
2023-04-23T00:38:00.572Z,52.90
2023-04-23T00:38:33.067Z,57.30
2023-04-23T00:39:05.592Z,56.30
2023-04-23T00:39:38.074Z,54.00
2023-04-23T00:40:10.575Z,55.30
2023-04-23T00:40:43.110Z,51.80
2023-04-23T00:41:15.601Z,53.00
2023-04-23T00:41:48.107Z,56.70
2023-04-23T00:42:20.598Z,59.10
2023-04-23T00:42:53.157Z,51.70
2023-04-23T00:43:25.717Z,51.90
2023-04-23T00:43:58.219Z,54.30
2023-04-23T00:44:30.709Z,51.50
2023-04-23T00:45:03.249Z,52.40
2023-04-23T00:45:35.876Z,56.20
2023-04-23T00:46:08.390Z,56.70
2023-04-23T00:46:40.830Z,49.90
2023-04-23T00:47:13.336Z,49.40
2023-04-23T00:47:45.882Z,52.50
2023-04-23T00:48:18.346Z,58.80
2023-04-23T00:48:50.855Z,62.10
2023-04-23T00:49:23.400Z,54.10
2023-04-23T00:49:55.920Z,51.20
2023-04-23T00:50:28.502Z,54.50
2023-04-23T00:51:00.985Z,55.70
2023-04-23T00:51:33.506Z,52.80
2023-04-23T00:52:06.028Z,57.70
2023-04-23T00:52:38.514Z,60.30
2023-04-23T00:53:11.072Z,51.40
2023-04-23T00:53:43.584Z,54.80
2023-04-23T00:54:16.068Z,59.20
2023-04-23T00:54:48.585Z,57.50
2023-04-23T00:55:21.157Z,56.90
2023-04-23T00:55:53.619Z,58.40
2023-04-23T00:56:26.122Z,52.60
2023-04-23T00:56:58.669Z,52.10
2023-04-23T00:57:31.143Z,60.70
2023-04-23T00:58:03.674Z,64.00
2023-04-23T00:58:36.247Z,61.30
2023-04-23T00:59:08.729Z,64.70
2023-04-23T00:59:41.216Z,61.70
2023-04-23T01:00:13.771Z,62.40
2023-04-23T01:00:46.350Z,57.70
2023-04-23T01:01:18.836Z,54.70
2023-04-23T01:01:51.327Z,56.00
2023-04-23T01:02:23.977Z,56.90
2023-04-23T01:02:56.460Z,59.50
2023-04-23T01:03:29.009Z,62.40
2023-04-23T01:04:01.576Z,63.90
2023-04-23T01:04:33.902Z,65.20
2023-04-23T01:05:06.439Z,62.20
2023-04-23T01:05:38.939Z,63.50
2023-04-23T01:06:11.521Z,66.30
2023-04-23T01:06:44.004Z,63.80
2023-04-23T01:07:16.501Z,64.90
2023-04-23T01:07:49.040Z,66.50
2023-04-23T01:08:21.528Z,65.30
2023-04-23T01:08:54.074Z,62.30
2023-04-23T01:09:26.588Z,63.30
2023-04-23T01:09:59.102Z,63.60
2023-04-23T01:10:31.621Z,63.10
2023-04-23T01:11:04.125Z,65.50
2023-04-23T01:11:36.659Z,59.10
2023-04-23T01:12:09.158Z,59.60
2023-04-23T01:12:41.686Z,58.60
2023-04-23T01:13:14.267Z,64.40
2023-04-23T01:13:46.719Z,65.20
2023-04-23T01:14:19.228Z,63.80
2023-04-23T01:14:51.780Z,66.70
2023-04-23T01:15:24.305Z,63.70
2023-04-23T01:15:56.798Z,64.30
2023-04-23T01:16:29.493Z,67.00
2023-04-23T01:17:02.011Z,69.50
2023-04-23T01:17:34.517Z,64.30
2023-04-23T01:18:06.922Z,64.70
2023-04-23T01:18:39.451Z,63.60
2023-04-23T01:19:12.055Z,61.60
2023-04-23T01:19:44.581Z,59.10
2023-04-23T01:20:17.092Z,57.60
2023-04-23T01:20:49.593Z,64.90
2023-04-23T01:21:22.098Z,66.40
2023-04-23T01:21:54.598Z,59.80
2023-04-23T01:22:27.094Z,58.00
2023-04-23T01:22:59.596Z,63.60
2023-04-23T01:23:32.130Z,65.90
2023-04-23T01:24:04.688Z,63.80
2023-04-23T01:24:37.181Z,62.10
2023-04-23T01:25:09.674Z,65.50
2023-04-23T01:25:42.221Z,70.10
2023-04-23T01:26:14.737Z,73.70
2023-04-23T01:26:47.295Z,72.10
2023-04-23T01:27:19.905Z,64.40
2023-04-23T01:27:52.383Z,65.40
2023-04-23T01:28:24.896Z,68.70
2023-04-23T01:28:57.429Z,71.40
2023-04-23T01:29:29.924Z,74.20
2023-04-23T01:30:02.435Z,62.30
2023-04-23T01:30:34.935Z,57.70
2023-04-23T01:31:07.617Z,61.90
2023-04-23T01:31:40.026Z,60.70
2023-04-23T01:32:12.531Z,63.50
2023-04-23T01:32:45.107Z,63.70
2023-04-23T01:33:17.543Z,61.00
2023-04-23T01:33:50.033Z,61.80
2023-04-23T01:34:22.542Z,64.10
2023-04-23T01:34:55.153Z,63.20
2023-04-23T01:35:27.760Z,59.70
2023-04-23T01:36:00.269Z,65.30
2023-04-23T01:36:32.780Z,66.20
2023-04-23T01:37:05.319Z,63.00
2023-04-23T01:37:37.842Z,61.20
2023-04-23T01:38:10.336Z,58.30
2023-04-23T01:38:42.869Z,62.70
2023-04-23T01:39:15.384Z,66.50
2023-04-23T01:39:47.953Z,66.50
2023-04-23T01:40:20.477Z,61.90
2023-04-23T01:40:52.990Z,58.00
2023-04-23T01:41:25.494Z,64.10
2023-04-23T01:41:58.036Z,71.70
2023-04-23T01:42:30.550Z,70.80
2023-04-23T01:43:03.071Z,71.50
2023-04-23T01:43:35.623Z,68.20
2023-04-23T01:44:08.122Z,69.80
2023-04-23T01:44:40.823Z,73.70
2023-04-23T01:45:13.175Z,78.80
2023-04-23T01:45:45.712Z,77.70
2023-04-23T01:46:18.250Z,73.10
2023-04-23T01:46:50.716Z,67.00
2023-04-23T01:47:23.267Z,71.20
2023-04-23T01:47:55.790Z,69.70
2023-04-23T01:48:28.280Z,66.30
2023-04-23T01:49:00.849Z,70.10
2023-04-23T01:49:33.345Z,69.00
2023-04-23T01:50:05.881Z,68.20
2023-04-23T01:50:38.433Z,77.60
2023-04-23T01:51:10.943Z,78.60
2023-04-23T01:51:43.442Z,68.20
2023-04-23T01:52:15.976Z,68.40
2023-04-23T01:52:48.453Z,74.90
2023-04-23T01:53:20.938Z,78.10
2023-04-23T01:53:53.436Z,75.20
2023-04-23T01:54:25.942Z,78.40
2023-04-23T01:54:58.440Z,76.10
2023-04-23T01:55:30.997Z,72.90
2023-04-23T01:56:03.535Z,70.50
2023-04-23T01:56:36.099Z,70.60
2023-04-23T01:57:08.602Z,66.40
2023-04-23T01:57:41.120Z,75.30
2023-04-23T01:58:13.687Z,78.90
2023-04-23T01:58:46.188Z,76.60
2023-04-23T01:59:18.696Z,67.80
2023-04-23T01:59:51.192Z,68.60
2023-04-23T02:00:23.671Z,69.40
2023-04-23T02:00:56.184Z,66.40
2023-04-23T02:01:28.724Z,73.40
2023-04-23T02:02:01.304Z,73.10
2023-04-23T02:02:33.860Z,77.30
2023-04-23T02:03:06.411Z,74.80
2023-04-23T02:03:38.859Z,72.60
2023-04-23T02:04:11.327Z,74.30
2023-04-23T02:04:44.056Z,72.90
2023-04-23T02:05:16.225Z,72.00
2023-04-23T02:05:48.787Z,74.70
2023-04-23T02:06:21.291Z,75.30
2023-04-23T02:06:53.790Z,80.20
2023-04-23T02:07:26.305Z,73.60
2023-04-23T02:07:58.805Z,71.80
2023-04-23T02:08:31.337Z,73.20
2023-04-23T02:09:03.842Z,73.60
2023-04-23T02:09:36.364Z,68.50
2023-04-23T02:10:08.877Z,67.40
2023-04-23T02:10:41.399Z,74.60
2023-04-23T02:11:13.902Z,70.90
2023-04-23T02:11:46.426Z,72.90
2023-04-23T02:12:18.924Z,79.20
2023-04-23T02:12:51.418Z,78.80
2023-04-23T02:13:23.954Z,80.00
2023-04-23T02:13:56.442Z,81.10
2023-04-23T02:14:28.954Z,84.30
2023-04-23T02:15:01.527Z,79.30
2023-04-23T02:15:34.064Z,72.10
2023-04-23T02:16:06.595Z,74.20
2023-04-23T02:16:39.058Z,80.40
2023-04-23T02:17:11.575Z,81.10
2023-04-23T02:17:44.115Z,80.40
2023-04-23T02:18:16.597Z,82.10
2023-04-23T02:18:49.108Z,79.90
2023-04-23T02:19:21.717Z,74.30
2023-04-23T02:19:54.205Z,80.30
2023-04-23T02:20:26.717Z,76.20
2023-04-23T02:20:59.275Z,78.00
2023-04-23T02:21:31.823Z,81.80
2023-04-23T02:22:04.354Z,74.70
2023-04-23T02:22:36.903Z,75.20
2023-04-23T02:23:09.447Z,86.70
2023-04-23T02:23:41.974Z,85.80
2023-04-23T02:24:14.517Z,79.60
2023-04-23T02:24:47.039Z,87.60
2023-04-23T02:25:19.616Z,79.60
2023-04-23T02:25:52.146Z,74.90
2023-04-23T02:26:24.645Z,77.80
2023-04-23T02:26:57.171Z,81.10
2023-04-23T02:27:29.683Z,84.60
2023-04-23T02:28:02.222Z,78.30
2023-04-23T02:28:34.750Z,74.50
2023-04-23T02:29:07.272Z,79.30
2023-04-23T02:29:39.775Z,76.20
2023-04-23T02:30:12.317Z,73.80
2023-04-23T02:30:44.817Z,82.10
2023-04-23T02:31:17.360Z,81.70
2023-04-23T02:31:49.894Z,77.80
2023-04-23T02:32:22.408Z,80.00
2023-04-23T02:32:54.952Z,79.70
2023-04-23T02:33:27.422Z,82.90
2023-04-23T02:33:59.952Z,86.40
2023-04-23T02:34:32.465Z,77.00
2023-04-23T02:35:04.984Z,70.40
2023-04-23T02:35:37.507Z,76.00
2023-04-23T02:36:10.010Z,81.60
2023-04-23T02:36:42.542Z,82.30
2023-04-23T02:37:15.097Z,76.90
2023-04-23T02:37:47.645Z,76.70
2023-04-23T02:38:20.211Z,72.00
2023-04-23T02:38:52.725Z,75.00
2023-04-23T02:39:25.221Z,80.70
2023-04-23T02:39:57.777Z,75.70
2023-04-23T02:40:30.314Z,69.20
2023-04-23T02:41:02.831Z,72.80
2023-04-23T02:41:35.318Z,75.90
2023-04-23T02:42:07.947Z,80.20
2023-04-23T02:42:41.890Z,84.60
2023-04-23T02:43:13.063Z,87.80
2023-04-23T02:43:45.566Z,80.80
2023-04-23T02:44:18.062Z,77.50
2023-04-23T02:44:50.533Z,81.90
2023-04-23T02:45:23.063Z,81.40
2023-04-23T02:45:55.602Z,82.70
2023-04-23T02:46:28.153Z,73.80
2023-04-23T02:47:00.756Z,69.20
2023-04-23T02:47:33.281Z,72.20
2023-04-23T02:48:05.749Z,76.40
2023-04-23T02:48:38.249Z,73.80
2023-04-23T02:49:10.789Z,74.00
2023-04-23T02:49:43.287Z,70.80
2023-04-23T02:50:15.811Z,72.40
2023-04-23T02:50:48.353Z,73.60
2023-04-23T02:51:20.877Z,73.80
2023-04-23T02:51:53.378Z,69.30
2023-04-23T02:52:25.878Z,75.00
2023-04-23T02:52:58.400Z,81.70
2023-04-23T02:53:30.900Z,75.10
2023-04-23T02:54:03.427Z,72.10
2023-04-23T02:54:36.014Z,79.80
2023-04-23T02:55:08.558Z,71.90
2023-04-23T02:55:41.082Z,73.10
2023-04-23T02:56:13.582Z,72.50
2023-04-23T02:56:46.160Z,72.10
2023-04-23T02:57:18.669Z,70.60
2023-04-23T02:57:51.213Z,77.60
2023-04-23T02:58:23.800Z,75.70
2023-04-23T02:58:56.301Z,77.00
2023-04-23T02:59:28.837Z,76.80
2023-04-23T03:00:01.416Z,78.40
2023-04-23T03:00:33.902Z,69.40
2023-04-23T03:01:06.436Z,63.30
2023-04-23T03:01:38.929Z,66.80
2023-04-23T03:02:11.558Z,73.80
2023-04-23T03:02:44.067Z,83.80
2023-04-23T03:03:16.664Z,86.80
2023-04-23T03:03:49.175Z,78.30
2023-04-23T03:04:21.573Z,70.40
2023-04-23T03:04:54.047Z,72.60
2023-04-23T03:05:26.586Z,73.70
2023-04-23T03:05:59.077Z,75.20
2023-04-23T03:06:31.596Z,78.60
2023-04-23T03:07:04.128Z,89.20
2023-04-23T03:07:36.642Z,83.90
2023-04-23T03:08:09.166Z,76.00
2023-04-23T03:08:41.712Z,77.80
2023-04-23T03:09:14.232Z,72.70
2023-04-23T03:09:46.777Z,69.80
2023-04-23T03:10:19.304Z,79.30
2023-04-23T03:10:51.797Z,85.30
2023-04-23T03:11:24.334Z,80.80
2023-04-23T03:11:56.846Z,81.40
2023-04-23T03:12:29.387Z,83.90
2023-04-23T03:13:01.942Z,83.10
2023-04-23T03:13:34.506Z,75.80
2023-04-23T03:14:07.048Z,77.00
2023-04-23T03:14:39.702Z,74.00
2023-04-23T03:15:12.070Z,72.00
2023-04-23T03:15:44.588Z,77.50
2023-04-23T03:16:17.198Z,81.80
2023-04-23T03:16:49.717Z,80.60
2023-04-23T03:17:22.238Z,80.80
2023-04-23T03:17:54.711Z,81.40
2023-04-23T03:18:27.220Z,84.40
2023-04-23T03:18:59.787Z,84.30
2023-04-23T03:19:32.310Z,72.10
2023-04-23T03:20:04.824Z,86.30
2023-04-23T03:20:37.370Z,92.40
2023-04-23T03:21:09.902Z,84.50
2023-04-23T03:21:42.407Z,91.80
2023-04-23T03:22:14.917Z,88.10
2023-04-23T03:22:47.440Z,76.80
2023-04-23T03:23:19.956Z,72.80
2023-04-23T03:23:52.494Z,70.80
2023-04-23T03:24:25.029Z,83.10
2023-04-23T03:24:57.557Z,87.70
2023-04-23T03:25:30.090Z,79.10
2023-04-23T03:26:02.621Z,83.30
2023-04-23T03:26:35.147Z,83.30
2023-04-23T03:27:07.672Z,74.40
2023-04-23T03:27:40.427Z,82.60
2023-04-23T03:28:12.769Z,81.40
2023-04-23T03:28:45.297Z,82.00
2023-04-23T03:29:17.829Z,89.60
2023-04-23T03:29:50.367Z,91.60
2023-04-23T03:30:22.889Z,79.50
2023-04-23T03:30:55.426Z,76.30
2023-04-23T03:31:27.905Z,88.80
2023-04-23T03:32:00.450Z,89.50
2023-04-23T03:32:33.048Z,84.50
2023-04-23T03:33:05.475Z,82.40
2023-04-23T03:33:37.987Z,80.60
2023-04-23T03:34:10.523Z,80.90
2023-04-23T03:34:43.279Z,83.00
2023-04-23T03:35:15.589Z,86.10
2023-04-23T03:35:48.125Z,87.30
2023-04-23T03:36:20.671Z,82.30
2023-04-23T03:36:53.242Z,89.60
2023-04-23T03:37:25.757Z,92.20
2023-04-23T03:37:58.305Z,82.50
2023-04-23T03:38:30.818Z,80.70
2023-04-23T03:39:03.337Z,83.20
2023-04-23T03:39:35.886Z,74.20
2023-04-23T03:40:08.421Z,75.30
2023-04-23T03:40:40.938Z,80.00
2023-04-23T03:41:13.466Z,86.20
2023-04-23T03:41:45.992Z,83.50
2023-04-23T03:42:18.480Z,79.10
2023-04-23T03:42:50.989Z,82.40
2023-04-23T03:43:23.540Z,81.30
2023-04-23T03:43:56.024Z,80.00
2023-04-23T03:44:28.495Z,78.40
2023-04-23T03:45:01.098Z,85.10
2023-04-23T03:45:33.628Z,85.70
2023-04-23T03:46:06.168Z,90.70
2023-04-23T03:46:38.833Z,84.80
2023-04-23T03:47:11.213Z,80.10
2023-04-23T03:47:43.750Z,100.90
2023-04-23T03:48:16.266Z,104.00
2023-04-23T03:48:48.761Z,95.90
2023-04-23T03:49:21.295Z,98.50
2023-04-23T03:49:53.824Z,100.20
2023-04-23T03:50:26.354Z,95.90
2023-04-23T03:50:58.884Z,86.70
2023-04-23T03:51:31.433Z,87.30
2023-04-23T03:52:03.961Z,92.10
2023-04-23T03:52:36.489Z,94.50
2023-04-23T03:53:09.016Z,95.40
2023-04-23T03:53:41.570Z,85.80
2023-04-23T03:54:14.118Z,89.60
2023-04-23T03:54:46.641Z,93.10
2023-04-23T03:55:19.179Z,91.80
2023-04-23T03:55:51.701Z,92.00
2023-04-23T03:56:26.438Z,88.00
2023-04-23T03:56:56.766Z,83.80
2023-04-23T03:57:29.257Z,82.60
2023-04-23T03:58:01.849Z,78.30
2023-04-23T03:58:34.311Z,86.70
2023-04-23T03:59:06.826Z,85.90
2023-04-23T03:59:39.359Z,83.00
2023-04-23T04:00:11.894Z,79.20
2023-04-23T04:00:44.421Z,90.30
2023-04-23T04:01:16.952Z,79.20
2023-04-23T04:01:49.462Z,81.00
2023-04-23T04:02:22.076Z,85.70
2023-04-23T04:02:54.706Z,93.90
2023-04-23T04:03:27.150Z,93.60
2023-04-23T04:03:59.804Z,90.30
2023-04-23T04:04:32.344Z,83.20
2023-04-23T04:05:04.932Z,80.20
2023-04-23T04:05:37.195Z,84.50
2023-04-23T04:06:09.697Z,90.50
2023-04-23T04:06:42.221Z,89.50
2023-04-23T04:07:14.727Z,92.50
2023-04-23T04:07:47.249Z,94.00
2023-04-23T04:08:19.805Z,91.10
2023-04-23T04:08:52.293Z,85.60
2023-04-23T04:09:24.819Z,87.50
2023-04-23T04:09:57.309Z,83.00
2023-04-23T04:10:29.845Z,82.30
2023-04-23T04:11:02.436Z,89.60
2023-04-23T04:11:34.952Z,82.70
2023-04-23T04:12:07.480Z,79.80
2023-04-23T04:12:40.015Z,92.20
2023-04-23T04:13:12.540Z,94.90
2023-04-23T04:13:45.046Z,82.20
2023-04-23T04:14:17.556Z,81.80
2023-04-23T04:14:50.104Z,91.20
2023-04-23T04:15:22.613Z,95.10
2023-04-23T04:15:55.168Z,84.30
2023-04-23T04:16:27.784Z,85.40
2023-04-23T04:17:00.191Z,88.80
2023-04-23T04:17:32.734Z,90.70
2023-04-23T04:18:05.218Z,87.80
2023-04-23T04:18:37.751Z,90.10
2023-04-23T04:19:10.271Z,91.00
2023-04-23T04:19:42.816Z,79.00
2023-04-23T04:20:15.366Z,79.40
2023-04-23T04:20:47.911Z,79.10
2023-04-23T04:21:20.432Z,86.20
2023-04-23T04:21:52.968Z,90.00
2023-04-23T04:22:25.508Z,79.90
2023-04-23T04:22:58.074Z,87.80
2023-04-23T04:23:30.562Z,85.70
2023-04-23T04:24:03.095Z,81.40
2023-04-23T04:24:35.616Z,89.30
2023-04-23T04:25:08.155Z,94.30
2023-04-23T04:25:40.689Z,85.60
2023-04-23T04:26:13.205Z,80.30
2023-04-23T04:26:45.738Z,85.90
2023-04-23T04:27:18.268Z,93.10
2023-04-23T04:27:50.825Z,91.60
2023-04-23T04:28:23.373Z,91.10
2023-04-23T04:28:56.058Z,97.60
2023-04-23T04:29:28.539Z,94.30
2023-04-23T04:30:01.085Z,93.70
2023-04-23T04:30:33.677Z,94.80
2023-04-23T04:31:06.239Z,86.30
2023-04-23T04:31:38.721Z,86.20
2023-04-23T04:32:11.228Z,89.80
2023-04-23T04:32:43.797Z,87.10
2023-04-23T04:33:16.261Z,84.00
2023-04-23T04:33:48.760Z,83.60
2023-04-23T04:34:21.340Z,87.70
2023-04-23T04:34:53.801Z,79.00
2023-04-23T04:35:26.352Z,75.30
2023-04-23T04:35:58.838Z,84.50
2023-04-23T04:36:31.367Z,89.50
2023-04-23T04:37:03.869Z,95.20
2023-04-23T04:37:36.459Z,92.00
2023-04-23T04:38:08.998Z,80.50
2023-04-23T04:38:41.520Z,84.00
2023-04-23T04:39:14.034Z,95.50
2023-04-23T04:39:46.584Z,93.90
2023-04-23T04:40:19.088Z,85.70
2023-04-23T04:40:51.577Z,90.70
2023-04-23T04:41:24.090Z,89.30
2023-04-23T04:41:56.671Z,95.80
2023-04-23T04:42:29.203Z,96.70
2023-04-23T04:43:01.732Z,88.40
2023-04-23T04:43:34.224Z,101.40
2023-04-23T04:44:06.743Z,93.50
2023-04-23T04:44:39.435Z,81.00
2023-04-23T04:45:11.783Z,91.70
2023-04-23T04:45:44.363Z,91.90
2023-04-23T04:46:16.837Z,84.90
2023-04-23T04:46:49.366Z,89.90
2023-04-23T04:47:21.872Z,98.40
2023-04-23T04:48:01.988Z,93.10
2023-04-23T04:48:34.568Z,87.30
2023-04-23T04:49:07.063Z,93.40
2023-04-23T04:49:39.544Z,92.70
2023-04-23T04:50:12.077Z,84.10
2023-04-23T04:50:44.578Z,87.80
2023-04-23T04:51:17.097Z,92.40
2023-04-23T04:51:49.598Z,89.90
2023-04-23T04:52:22.113Z,87.70
2023-04-23T04:52:54.609Z,90.70
2023-04-23T04:53:27.175Z,92.30
2023-04-23T04:53:59.630Z,88.50
2023-04-23T04:54:32.190Z,88.10
2023-04-23T04:55:04.704Z,87.80
2023-04-23T04:55:37.271Z,90.50
2023-04-23T04:56:09.784Z,87.60
2023-04-23T04:56:42.311Z,83.50
2023-04-23T04:57:14.799Z,90.00
2023-04-23T04:57:47.291Z,91.20
2023-04-23T04:58:19.778Z,93.10
2023-04-23T04:58:52.292Z,80.30
2023-04-23T04:59:24.846Z,86.50
2023-04-23T04:59:57.356Z,86.20
2023-04-23T05:00:29.917Z,87.60
2023-04-23T05:01:02.428Z,96.10
2023-04-23T05:01:35.024Z,88.00
2023-04-23T05:02:07.579Z,87.20
2023-04-23T05:02:40.083Z,89.60
2023-04-23T05:03:14.109Z,84.90
2023-04-23T05:03:45.149Z,93.60
2023-04-23T05:04:17.696Z,95.80
2023-04-23T05:04:50.062Z,94.80
2023-04-23T05:05:22.645Z,89.20
2023-04-23T05:05:55.174Z,86.50
2023-04-23T05:06:27.680Z,89.10
2023-04-23T05:07:00.245Z,87.10
2023-04-23T05:07:32.836Z,88.30
2023-04-23T05:08:05.325Z,87.60
2023-04-23T05:08:37.840Z,88.10
2023-04-23T05:09:10.373Z,87.10
2023-04-23T05:09:44.410Z,80.20
2023-04-23T05:10:15.406Z,79.70
2023-04-23T05:10:47.958Z,90.00
2023-04-23T05:11:20.544Z,94.50
2023-04-23T05:11:53.061Z,90.20
2023-04-23T05:12:25.555Z,87.00
2023-04-23T05:12:58.059Z,83.20
2023-04-23T05:13:30.593Z,88.80
2023-04-23T05:14:03.106Z,89.50
2023-04-23T05:14:36.007Z,92.20
2023-04-23T05:15:08.524Z,93.20
2023-04-23T05:15:41.083Z,93.00
2023-04-23T05:16:13.642Z,90.60
2023-04-23T05:16:46.179Z,87.10
2023-04-23T05:17:18.687Z,83.50
2023-04-23T05:17:51.224Z,82.90
2023-04-23T05:18:23.715Z,89.10
2023-04-23T05:18:56.228Z,90.20
2023-04-23T05:19:28.741Z,85.00
2023-04-23T05:20:01.242Z,88.60
2023-04-23T05:20:33.783Z,86.10
2023-04-23T05:21:06.291Z,83.00
2023-04-23T05:21:38.817Z,80.50
2023-04-23T05:22:11.336Z,83.60
2023-04-23T05:22:43.846Z,90.30
2023-04-23T05:23:16.331Z,90.40
2023-04-23T05:23:48.886Z,96.30
2023-04-23T05:24:21.398Z,97.70
2023-04-23T05:24:53.914Z,87.70
2023-04-23T05:25:26.566Z,83.10
2023-04-23T05:25:59.140Z,90.20
2023-04-23T05:26:31.666Z,98.50
2023-04-23T05:27:04.184Z,91.70
2023-04-23T05:27:36.708Z,88.70
2023-04-23T05:28:09.254Z,91.10
2023-04-23T05:28:41.865Z,87.50
2023-04-23T05:29:14.300Z,81.00
2023-04-23T05:29:46.815Z,90.30
2023-04-23T05:30:19.398Z,89.90
2023-04-23T05:30:51.925Z,88.10
2023-04-23T05:31:24.450Z,93.50
2023-04-23T05:31:56.976Z,97.40
2023-04-23T05:32:29.520Z,89.00
2023-04-23T05:33:01.986Z,81.10
2023-04-23T05:33:46.218Z,82.10
2023-04-23T05:34:07.046Z,93.50
2023-04-23T05:34:39.822Z,87.50
2023-04-23T05:35:12.076Z,80.70
2023-04-23T05:35:44.608Z,76.80
2023-04-23T05:36:17.131Z,73.30
2023-04-23T05:36:49.631Z,75.30
2023-04-23T05:37:22.188Z,75.70
2023-04-23T05:37:54.704Z,70.60
2023-04-23T05:38:27.308Z,75.00
2023-04-23T05:38:59.869Z,74.80
2023-04-23T05:39:32.349Z,75.20
2023-04-23T05:40:04.870Z,74.30
2023-04-23T05:40:37.411Z,70.20
2023-04-23T05:41:09.951Z,74.90
2023-04-23T05:41:42.527Z,80.10
2023-04-23T05:42:15.056Z,77.30
2023-04-23T05:42:47.587Z,79.10
2023-04-23T05:43:20.103Z,82.20
2023-04-23T05:43:52.710Z,73.10
2023-04-23T05:44:25.212Z,69.90
2023-04-23T05:44:57.763Z,66.40
2023-04-23T05:45:30.324Z,70.70
2023-04-23T05:46:02.844Z,71.50
2023-04-23T05:46:35.358Z,66.10
2023-04-23T05:47:07.860Z,64.20
2023-04-23T05:47:40.409Z,73.40
2023-04-23T05:48:12.912Z,71.50
2023-04-23T05:48:45.449Z,64.80
2023-04-23T05:49:17.958Z,62.30
2023-04-23T05:49:50.502Z,69.70
2023-04-23T05:50:23.009Z,65.50
2023-04-23T05:50:55.516Z,59.40
2023-04-23T05:51:28.025Z,56.40
2023-04-23T05:52:00.584Z,52.10
2023-04-23T05:52:33.114Z,54.80
2023-04-23T05:53:05.624Z,57.10
2023-04-23T05:53:38.179Z,56.70
2023-04-23T05:54:10.701Z,57.80
2023-04-23T05:54:43.560Z,53.30
2023-04-23T05:55:15.710Z,53.30
2023-04-23T05:55:48.264Z,56.60
2023-04-23T05:56:20.797Z,52.50
2023-04-23T05:56:54.713Z,57.50
2023-04-23T05:57:25.766Z,61.60
2023-04-23T05:57:58.283Z,56.70
2023-04-23T05:58:30.832Z,52.30
2023-04-23T05:59:03.365Z,50.80
2023-04-23T05:59:35.885Z,56.00
2023-04-23T06:00:08.435Z,55.10
2023-04-23T06:00:41.094Z,47.80
2023-04-23T06:01:13.539Z,51.30
2023-04-23T06:01:46.044Z,56.00
2023-04-23T06:02:18.611Z,52.60
2023-04-23T06:02:51.234Z,47.90
2023-04-23T06:03:23.743Z,49.30
2023-04-23T06:03:56.427Z,53.90
2023-04-23T06:04:28.886Z,51.40
2023-04-23T06:05:01.510Z,54.80
2023-04-23T06:05:33.814Z,48.90
2023-04-23T06:06:06.285Z,47.20
2023-04-23T06:06:38.799Z,50.80
2023-04-23T06:07:11.360Z,50.40
2023-04-23T06:07:43.877Z,49.50
2023-04-23T06:08:16.408Z,44.50
2023-04-23T06:08:48.940Z,44.30
2023-04-23T06:09:21.449Z,50.10
2023-04-23T06:09:53.951Z,48.80
2023-04-23T06:10:26.526Z,44.70
2023-04-23T06:10:59.097Z,41.20
2023-04-23T06:11:31.609Z,43.00
2023-04-23T06:12:04.119Z,43.60
2023-04-23T06:12:36.669Z,45.90
2023-04-23T06:13:09.196Z,47.80
2023-04-23T06:13:43.650Z,47.00
2023-04-23T06:14:14.276Z,45.80
2023-04-23T06:14:46.770Z,45.60
2023-04-23T06:15:19.299Z,46.00
2023-04-23T06:15:51.878Z,45.80
2023-04-23T06:16:24.424Z,47.90
2023-04-23T06:16:56.868Z,46.50
2023-04-23T06:17:29.472Z,41.80
2023-04-23T06:18:01.971Z,42.70
2023-04-23T06:18:34.535Z,45.80
2023-04-23T06:19:07.013Z,44.30
2023-04-23T06:19:39.560Z,43.70
2023-04-23T06:20:12.186Z,47.30
2023-04-23T06:20:44.626Z,45.70
2023-04-23T06:21:18.115Z,42.20
2023-04-23T06:21:49.704Z,41.90
2023-04-23T06:22:22.230Z,45.30
2023-04-23T06:22:54.776Z,45.40
2023-04-23T06:23:27.284Z,43.70
2023-04-23T06:23:59.796Z,42.90
2023-04-23T06:24:32.298Z,43.00
2023-04-23T06:25:04.805Z,42.90
2023-04-23T06:25:37.367Z,42.90
2023-04-23T06:26:10.021Z,40.70
2023-04-23T06:26:42.569Z,38.80
2023-04-23T06:27:15.110Z,42.10
2023-04-23T06:27:54.681Z,46.20
2023-04-23T06:28:27.212Z,43.30
2023-04-23T06:28:59.727Z,41.60
2023-04-23T06:29:32.250Z,41.40
2023-04-23T06:30:04.743Z,41.70
2023-04-23T06:30:37.293Z,39.80
2023-04-23T06:31:09.890Z,40.40
2023-04-23T06:31:42.474Z,39.50
2023-04-23T06:32:14.924Z,39.70
2023-04-23T06:32:47.455Z,37.70
2023-04-23T06:33:20.022Z,34.60
2023-04-23T06:33:52.484Z,37.80
2023-04-23T06:34:24.995Z,36.80
2023-04-23T06:35:01.508Z,36.20
2023-04-23T06:35:30.053Z,37.10
2023-04-23T06:36:02.559Z,37.20
2023-04-23T06:36:35.137Z,38.30
2023-04-23T06:37:07.594Z,39.50
2023-04-23T06:37:40.128Z,38.30
2023-04-23T06:38:12.681Z,38.60
2023-04-23T06:38:45.255Z,38.60
2023-04-23T06:39:17.771Z,39.90
2023-04-23T06:39:50.320Z,39.30
2023-04-23T06:40:22.907Z,38.30
2023-04-23T06:40:55.444Z,36.00
2023-04-23T06:41:28.001Z,34.60
2023-04-23T06:42:00.584Z,30.50
2023-04-23T06:42:33.299Z,31.60
2023-04-23T06:43:05.844Z,37.40
2023-04-23T06:43:38.376Z,36.60
2023-04-23T06:44:10.950Z,36.00
2023-04-23T06:44:43.840Z,35.30
2023-04-23T06:45:16.156Z,32.60
2023-04-23T06:45:48.683Z,32.30
2023-04-23T06:46:21.231Z,35.80
2023-04-23T06:46:53.731Z,37.10
2023-04-23T06:47:26.941Z,34.10
2023-04-23T06:47:59.461Z,37.90
2023-04-23T06:48:31.960Z,36.90
2023-04-23T06:49:04.462Z,31.80
2023-04-23T06:49:37.020Z,28.50
2023-04-23T06:50:09.544Z,31.30
2023-04-23T06:50:42.093Z,30.20
2023-04-23T06:51:14.651Z,28.80
2023-04-23T06:51:47.184Z,30.60
2023-04-23T06:52:19.724Z,29.70
2023-04-23T06:52:52.222Z,27.40
2023-04-23T06:53:24.737Z,27.60
2023-04-23T06:53:57.240Z,30.70
2023-04-23T06:54:29.748Z,31.50
2023-04-23T06:55:02.270Z,30.80
2023-04-23T06:55:34.764Z,29.80
2023-04-23T06:56:07.285Z,27.50
2023-04-23T06:56:39.781Z,30.20
2023-04-23T06:57:12.483Z,32.30
2023-04-23T06:57:44.922Z,29.10
2023-04-23T06:58:17.426Z,28.70
2023-04-23T06:58:49.937Z,29.50